createdAt,value
2022-11-18T00:01:13.216Z,99.90
2022-11-18T00:03:41.307Z,99.90
2022-11-18T00:06:12.075Z,99.90
2022-11-18T00:08:39.065Z,99.90
2022-11-18T00:11:37.505Z,99.90
2022-11-18T00:14:22.215Z,99.40
2022-11-18T00:17:01.426Z,99.10
2022-11-18T00:19:39.825Z,99.00
2022-11-18T00:22:08.291Z,99.00
2022-11-18T00:24:35.206Z,99.10
2022-11-18T00:27:02.026Z,98.70
2022-11-18T00:29:29.242Z,98.50
2022-11-18T00:31:56.859Z,98.50
2022-11-18T00:34:24.652Z,98.60
2022-11-18T00:36:51.712Z,98.60
2022-11-18T00:39:20.386Z,98.70
2022-11-18T00:42:06.638Z,98.90
2022-11-18T00:44:33.808Z,99.00
2022-11-18T00:47:00.654Z,98.80
2022-11-18T00:49:27.528Z,98.60
2022-11-18T00:51:54.408Z,98.90
2022-11-18T00:54:21.823Z,98.70
2022-11-18T00:56:48.740Z,98.80
2022-11-18T00:59:15.934Z,98.20
2022-11-18T01:01:43.094Z,97.80
2022-11-18T01:04:09.932Z,97.60
2022-11-18T01:06:36.775Z,97.30
2022-11-18T01:09:03.614Z,97.40
2022-11-18T01:11:49.019Z,97.40
2022-11-18T01:14:15.818Z,97.10
2022-11-18T01:16:42.692Z,97.30
2022-11-18T01:19:09.498Z,97.10
2022-11-18T01:21:36.313Z,97.30
2022-11-18T01:24:03.139Z,97.20
2022-11-18T01:26:30.038Z,97.20
2022-11-18T01:28:57.847Z,96.70
2022-11-18T01:31:24.843Z,96.60
2022-11-18T01:33:52.283Z,96.50
2022-11-18T01:36:25.467Z,96.80
2022-11-18T01:38:53.474Z,96.90
2022-11-18T01:41:22.769Z,97.30
2022-11-18T01:44:04.377Z,96.90
2022-11-18T01:46:34.354Z,96.90
2022-11-18T01:49:12.143Z,97.20
2022-11-18T01:51:46.561Z,97.20
2022-11-18T01:54:20.289Z,97.10
2022-11-18T01:56:52.739Z,97.40
2022-11-18T01:59:24.041Z,97.60
2022-11-18T02:01:52.197Z,97.70
2022-11-18T02:04:25.304Z,97.80
2022-11-18T02:06:52.603Z,98.10
2022-11-18T02:09:19.601Z,98.30
2022-11-18T02:11:54.343Z,98.20
2022-11-18T02:14:34.142Z,98.00
2022-11-18T02:17:25.101Z,97.80
2022-11-18T02:20:12.273Z,97.80
2022-11-18T02:22:48.655Z,97.50
2022-11-18T02:25:24.246Z,97.30
2022-11-18T02:28:27.484Z,97.30
2022-11-18T02:31:07.755Z,97.50
2022-11-18T02:33:51.364Z,97.60
2022-11-18T02:36:41.508Z,97.80
2022-11-18T02:39:15.138Z,97.80
2022-11-18T02:41:44.315Z,98.10
2022-11-18T02:44:16.413Z,98.20
2022-11-18T02:46:47.564Z,97.80
2022-11-18T02:49:22.630Z,97.50
2022-11-18T02:51:51.609Z,97.30
2022-11-18T02:54:20.527Z,97.30
2022-11-18T02:56:49.018Z,97.50
2022-11-18T02:59:20.315Z,97.50
2022-11-18T03:01:48.109Z,97.50
2022-11-18T03:04:17.489Z,97.60
2022-11-18T03:06:56.555Z,97.70
2022-11-18T03:09:29.356Z,97.80
2022-11-18T03:12:17.256Z,97.80
2022-11-18T03:15:02.161Z,97.80
2022-11-18T03:17:55.485Z,97.70
2022-11-18T03:20:27.823Z,97.70
2022-11-18T03:23:13.471Z,97.60
2022-11-18T03:26:00.949Z,97.60
2022-11-18T03:28:30.526Z,97.40
2022-11-18T03:31:08.618Z,97.10
2022-11-18T03:33:45.160Z,97.30
2022-11-18T03:36:14.008Z,97.50
2022-11-18T03:38:47.421Z,97.50
2022-11-18T03:41:17.394Z,97.70
2022-11-18T03:43:53.580Z,97.50
2022-11-18T03:46:30.090Z,96.90
2022-11-18T03:48:59.081Z,96.90
2022-11-18T03:51:54.147Z,96.90
2022-11-18T03:54:29.931Z,96.90
2022-11-18T03:57:00.769Z,96.90
2022-11-18T03:59:43.929Z,97.10
2022-11-18T04:02:16.303Z,97.30
2022-11-18T04:04:46.001Z,97.60
2022-11-18T04:07:33.346Z,97.60
2022-11-18T04:10:11.469Z,97.50
2022-11-18T04:12:46.266Z,97.60
2022-11-18T04:15:13.176Z,97.70
2022-11-18T04:17:43.058Z,97.80
2022-11-18T04:20:17.065Z,97.90
2022-11-18T04:22:43.968Z,97.70
2022-11-18T04:25:11.069Z,97.20
2022-11-18T04:27:37.911Z,97.10
2022-11-18T04:30:06.359Z,97.00
2022-11-18T04:32:33.574Z,97.00
2022-11-18T04:35:00.334Z,96.90
2022-11-18T04:37:27.210Z,97.10
2022-11-18T04:39:53.944Z,97.40
2022-11-18T04:42:20.748Z,97.90
2022-11-18T04:44:47.527Z,97.90
2022-11-18T04:47:14.452Z,97.90
2022-11-18T04:49:41.203Z,98.00
2022-11-18T04:52:08.298Z,98.10
2022-11-18T04:54:35.069Z,98.20
2022-11-18T04:57:01.884Z,98.40
2022-11-18T04:59:29.842Z,98.30
2022-11-18T05:01:57.858Z,98.40
2022-11-18T05:04:26.919Z,98.30
2022-11-18T05:06:54.134Z,98.50
2022-11-18T05:09:21.548Z,98.70
2022-11-18T05:12:07.557Z,98.70
2022-11-18T05:14:34.942Z,98.70
2022-11-18T05:17:03.477Z,98.50
2022-11-18T05:19:30.809Z,98.70
2022-11-18T05:21:57.952Z,98.70
2022-11-18T05:24:24.831Z,98.70
2022-11-18T05:26:53.149Z,98.80
2022-11-18T05:29:20.984Z,98.80
2022-11-18T05:31:49.152Z,98.80
2022-11-18T05:34:17.405Z,98.70
2022-11-18T05:36:44.320Z,98.70
2022-11-18T05:39:11.325Z,98.40
2022-11-18T05:41:56.472Z,98.20
2022-11-18T05:44:23.618Z,98.10
2022-11-18T05:46:50.525Z,98.10
2022-11-18T05:49:17.621Z,98.20
2022-11-18T05:51:44.601Z,98.00
2022-11-18T05:54:14.273Z,97.70
2022-11-18T05:56:44.976Z,97.60
2022-11-18T05:59:12.448Z,97.80
2022-11-18T06:01:45.009Z,97.80
2022-11-18T06:04:14.729Z,97.80
2022-11-18T06:06:42.880Z,97.70
2022-11-18T06:09:11.053Z,97.50
2022-11-18T06:11:46.794Z,97.10
2022-11-18T06:14:31.542Z,97.00
2022-11-18T06:17:03.010Z,96.80
2022-11-18T06:19:31.219Z,96.80
2022-11-18T06:21:59.256Z,96.90
2022-11-18T06:24:26.344Z,97.10
2022-11-18T06:26:53.646Z,97.00
2022-11-18T06:29:27.190Z,96.90
2022-11-18T06:31:54.695Z,96.90
2022-11-18T06:34:21.584Z,96.70
2022-11-18T06:36:48.512Z,96.70
2022-11-18T06:39:15.623Z,96.60
2022-11-18T06:41:42.736Z,96.50
2022-11-18T06:44:12.622Z,96.60
2022-11-18T06:46:57.719Z,96.50
2022-11-18T06:49:25.744Z,96.40
2022-11-18T06:51:52.793Z,96.50
2022-11-18T06:54:19.874Z,96.50
2022-11-18T06:56:46.763Z,96.30
2022-11-18T06:59:13.780Z,96.10
2022-11-18T07:01:41.811Z,96.20
2022-11-18T07:04:09.068Z,96.20
2022-11-18T07:06:36.750Z,95.90
2022-11-18T07:09:07.164Z,95.80
2022-11-18T07:11:36.089Z,95.70
2022-11-18T07:14:03.065Z,95.80
2022-11-18T07:16:29.904Z,95.80
2022-11-18T07:18:57.188Z,95.90
2022-11-18T07:21:26.906Z,95.60
2022-11-18T07:23:54.668Z,95.50
2022-11-18T07:26:22.109Z,95.40
2022-11-18T07:28:49.562Z,95.20
2022-11-18T07:31:18.421Z,94.80
2022-11-18T07:33:46.292Z,94.80
2022-11-18T07:36:15.444Z,94.80
2022-11-18T07:38:42.949Z,94.90
2022-11-18T07:41:14.185Z,95.00
2022-11-18T07:43:41.499Z,95.00
2022-11-18T07:46:26.395Z,95.10
2022-11-18T07:48:55.375Z,95.10
2022-11-18T07:51:25.230Z,95.20
2022-11-18T07:53:52.382Z,95.10
2022-11-18T07:56:20.198Z,94.50
2022-11-18T07:58:47.180Z,94.30
2022-11-18T08:01:16.847Z,94.40
2022-11-18T08:03:44.989Z,94.30
2022-11-18T08:06:13.532Z,94.00
2022-11-18T08:08:40.892Z,94.00
2022-11-18T08:11:10.324Z,94.00
2022-11-18T08:13:37.637Z,94.10
2022-11-18T08:16:05.777Z,94.20
2022-11-18T08:18:33.011Z,94.10
2022-11-18T08:21:04.130Z,94.10
2022-11-18T08:23:35.079Z,93.90
2022-11-18T08:26:07.520Z,93.60
2022-11-18T08:28:34.520Z,93.70
2022-11-18T08:31:08.528Z,93.90
2022-11-18T08:33:35.297Z,94.00
2022-11-18T08:36:16.650Z,94.10
2022-11-18T08:38:43.688Z,94.30
2022-11-18T08:41:27.319Z,94.70
2022-11-18T08:43:54.080Z,95.00
2022-11-18T08:46:20.976Z,95.00
2022-11-18T08:48:47.916Z,95.10
2022-11-18T08:51:16.074Z,94.80
2022-11-18T08:53:43.389Z,94.50
2022-11-18T08:56:16.217Z,94.40
2022-11-18T08:58:43.551Z,94.10
2022-11-18T09:01:10.742Z,94.20
2022-11-18T09:03:37.668Z,94.10
2022-11-18T09:06:07.589Z,94.00
2022-11-18T09:08:34.426Z,93.80
2022-11-18T09:11:07.516Z,93.80
2022-11-18T09:13:56.254Z,93.80
2022-11-18T09:16:27.650Z,93.70
2022-11-18T09:18:56.677Z,93.90
2022-11-18T09:21:23.978Z,94.00
2022-11-18T09:23:50.898Z,94.00
2022-11-18T09:26:20.893Z,93.80
2022-11-18T09:28:47.832Z,93.90
2022-11-18T09:31:17.667Z,93.90
2022-11-18T09:33:45.390Z,93.90
2022-11-18T09:36:14.831Z,93.90
2022-11-18T09:38:41.997Z,94.00
2022-11-18T09:41:49.695Z,94.00
2022-11-18T09:44:25.352Z,93.60
2022-11-18T09:47:27.981Z,93.40
2022-11-18T09:50:26.826Z,93.30
2022-11-18T09:53:09.788Z,93.10
2022-11-18T09:55:39.665Z,93.20
2022-11-18T09:58:07.250Z,93.40
2022-11-18T10:00:34.778Z,93.20
2022-11-18T10:03:12.499Z,93.20
2022-11-18T10:06:03.663Z,93.10
2022-11-18T10:09:03.313Z,93.30
2022-11-18T10:11:41.720Z,93.30
2022-11-18T10:14:36.476Z,93.10
2022-11-18T10:17:25.303Z,93.20
2022-11-18T10:20:15.236Z,93.30
2022-11-18T10:23:00.362Z,93.30
2022-11-18T10:25:27.328Z,93.30
2022-11-18T10:27:56.688Z,93.50
2022-11-18T10:30:26.937Z,93.40
2022-11-18T10:33:02.716Z,93.00
2022-11-18T10:35:36.251Z,92.70
2022-11-18T10:38:14.090Z,92.60
2022-11-18T10:40:57.240Z,92.50
2022-11-18T10:43:52.446Z,92.50
2022-11-18T10:46:24.966Z,92.30
2022-11-18T10:49:10.064Z,92.20
2022-11-18T10:51:41.197Z,92.10
2022-11-18T10:54:28.232Z,92.10
2022-11-18T10:57:05.607Z,92.10
2022-11-18T10:59:39.301Z,92.20
2022-11-18T11:02:27.029Z,92.10
2022-11-18T11:04:54.171Z,92.20
2022-11-18T11:07:32.951Z,92.10
2022-11-18T11:10:22.756Z,92.20
2022-11-18T11:12:57.342Z,92.20
2022-11-18T11:15:45.765Z,92.10
2022-11-18T11:18:42.388Z,91.90
2022-11-18T11:21:14.244Z,91.80
2022-11-18T11:23:43.236Z,91.80
2022-11-18T11:30:04.818Z,91.80
2022-11-18T11:32:45.731Z,91.70
2022-11-18T11:35:16.945Z,92.10
2022-11-18T11:38:16.394Z,92.10
2022-11-18T11:40:51.896Z,92.20
2022-11-18T11:43:46.065Z,92.30
2022-11-18T11:46:36.005Z,92.20
2022-11-18T11:49:38.834Z,91.70
2022-11-18T11:52:31.952Z,91.60
2022-11-18T11:55:08.330Z,91.70
2022-11-18T11:58:00.014Z,91.80
2022-11-18T12:00:28.851Z,91.90
2022-11-18T12:03:15.743Z,91.90
2022-11-18T12:05:43.314Z,91.90
2022-11-18T12:08:13.126Z,91.60
2022-11-18T12:10:51.633Z,91.40
2022-11-18T12:13:40.128Z,91.10
2022-11-18T12:16:25.675Z,91.10
2022-11-18T12:19:08.651Z,91.20
2022-11-18T12:21:45.449Z,91.30
2022-11-18T12:24:18.497Z,91.10
2022-11-18T12:26:47.206Z,90.80
2022-11-18T12:29:20.525Z,90.70
2022-11-18T12:32:08.972Z,90.90
2022-11-18T12:34:45.171Z,90.80
2022-11-18T12:37:23.661Z,90.90
2022-11-18T12:40:00.848Z,91.00
2022-11-18T12:43:05.225Z,91.00
2022-11-18T12:45:50.077Z,90.90
2022-11-18T12:48:35.255Z,90.70
2022-11-18T12:51:22.285Z,90.70
2022-11-18T12:53:50.848Z,90.70
2022-11-18T12:56:17.588Z,90.70
2022-11-18T12:58:50.186Z,90.70
2022-11-18T13:01:19.765Z,90.70
2022-11-18T13:03:46.867Z,90.70
2022-11-18T13:06:19.994Z,90.80
2022-11-18T13:08:53.116Z,90.80
2022-11-18T13:11:39.033Z,90.90
2022-11-18T13:14:25.208Z,91.00
2022-11-18T13:17:10.849Z,91.00
2022-11-18T13:19:37.669Z,91.00
2022-11-18T13:22:23.057Z,90.90
2022-11-18T13:24:51.684Z,90.60
2022-11-18T13:27:40.238Z,90.30
2022-11-18T13:30:11.782Z,90.50
2022-11-18T13:32:46.681Z,90.70
2022-11-18T13:35:22.128Z,90.70
2022-11-18T13:38:00.525Z,90.90
2022-11-18T13:40:38.899Z,90.90
2022-11-18T13:43:06.112Z,90.90
2022-11-18T13:45:34.422Z,90.90
2022-11-18T13:48:13.491Z,90.60
2022-11-18T13:50:55.173Z,90.40
2022-11-18T13:53:30.960Z,90.40
2022-11-18T13:56:01.889Z,90.40
2022-11-18T13:59:15.726Z,90.30
2022-11-18T14:01:33.372Z,90.10
2022-11-18T14:04:17.843Z,89.20
2022-11-18T14:06:45.168Z,89.50
2022-11-18T14:09:27.084Z,89.70
2022-11-18T14:12:12.673Z,89.30
2022-11-18T14:14:41.576Z,89.50
2022-11-18T14:17:28.851Z,89.80
2022-11-18T14:19:57.917Z,89.70
2022-11-18T14:22:31.458Z,89.70
2022-11-18T14:25:23.172Z,89.90
2022-11-18T14:27:52.537Z,89.30
2022-11-18T14:30:34.761Z,89.50
2022-11-18T14:33:22.148Z,89.60
2022-11-18T14:36:14.552Z,89.60
2022-11-18T14:41:47.628Z,89.50
2022-11-18T14:44:15.265Z,89.50
2022-11-18T14:46:44.956Z,89.60
2022-11-18T14:49:19.170Z,89.50
2022-11-18T14:51:46.580Z,89.30
2022-11-18T14:54:25.128Z,89.60
2022-11-18T14:56:57.033Z,89.50
2022-11-18T14:59:24.106Z,89.80
2022-11-18T15:01:51.085Z,90.10
2022-11-18T15:04:18.419Z,90.30
2022-11-18T15:06:45.442Z,90.30
2022-11-18T15:09:12.983Z,90.30
2022-11-18T15:11:39.883Z,90.40
2022-11-18T15:14:06.738Z,90.50
2022-11-18T15:16:35.355Z,90.70
2022-11-18T15:19:04.646Z,90.70
2022-11-18T15:21:32.424Z,90.90
2022-11-18T15:23:59.330Z,90.90
2022-11-18T15:26:34.308Z,90.90
2022-11-18T15:29:01.081Z,91.00
2022-11-18T15:31:27.973Z,91.00
2022-11-18T15:33:54.834Z,91.00
2022-11-18T15:36:24.100Z,91.00
2022-11-18T15:38:52.592Z,91.00
2022-11-18T15:41:30.148Z,91.00
2022-11-18T15:43:59.822Z,90.80
2022-11-18T15:46:28.157Z,90.50
2022-11-18T15:48:56.639Z,90.50
2022-11-18T15:51:24.695Z,90.10
2022-11-18T15:53:51.697Z,89.90
2022-11-18T15:56:24.537Z,89.70
2022-11-18T15:59:05.756Z,89.50
2022-11-18T16:01:37.959Z,89.50
2022-11-18T16:04:07.821Z,89.80
2022-11-18T16:06:34.933Z,89.70
2022-11-18T16:09:02.445Z,89.20
2022-11-18T16:11:48.732Z,88.90
2022-11-18T16:14:18.590Z,88.70
2022-11-18T16:16:47.319Z,88.60
2022-11-18T16:19:16.782Z,88.20
2022-11-18T16:21:48.927Z,88.20
2022-11-18T16:24:22.156Z,88.00
2022-11-18T16:26:49.897Z,88.40
2022-11-18T16:29:18.192Z,88.00
2022-11-18T16:31:50.956Z,88.20
2022-11-18T16:34:17.668Z,88.10
2022-11-18T16:36:59.716Z,88.20
2022-11-18T16:39:28.014Z,88.20
2022-11-18T16:42:07.409Z,88.40
2022-11-18T16:44:35.201Z,88.20
2022-11-18T16:47:02.484Z,88.00
2022-11-18T16:49:29.300Z,88.10
2022-11-18T16:51:57.405Z,88.10
2022-11-18T16:54:28.357Z,88.20
2022-11-18T16:56:56.833Z,88.00
2022-11-18T16:59:28.810Z,88.10
2022-11-18T17:01:57.568Z,88.20
2022-11-18T17:04:26.001Z,88.00
2022-11-18T17:06:53.858Z,88.20
2022-11-18T17:09:22.619Z,88.40
2022-11-18T17:11:50.269Z,88.40
2022-11-18T17:14:17.479Z,88.20
2022-11-18T17:16:44.338Z,88.40
2022-11-18T17:19:22.838Z,88.40
2022-11-18T17:21:51.391Z,88.30
2022-11-18T17:24:21.636Z,88.20
2022-11-18T17:26:49.255Z,88.00
2022-11-18T17:29:16.673Z,88.00
2022-11-18T17:31:43.995Z,88.10
2022-11-18T17:34:13.121Z,88.30
2022-11-18T17:36:41.091Z,88.50
2022-11-18T17:39:10.828Z,88.50
2022-11-18T17:41:56.749Z,88.50
2022-11-18T17:44:24.564Z,88.40
2022-11-18T17:46:51.614Z,88.00
2022-11-18T17:49:21.177Z,88.20
2022-11-18T17:51:48.704Z,88.40
2022-11-18T17:54:15.868Z,88.10
2022-11-18T17:56:43.137Z,88.20
2022-11-18T17:59:10.035Z,88.30
2022-11-18T18:01:36.964Z,88.40
2022-11-18T18:04:03.985Z,88.30
2022-11-18T18:06:30.829Z,88.50
2022-11-18T18:08:58.576Z,88.50
2022-11-18T18:11:26.714Z,88.50
2022-11-18T18:14:12.523Z,88.50
2022-11-18T18:16:45.416Z,88.50
2022-11-18T18:19:20.210Z,88.70
2022-11-18T18:21:47.424Z,88.60
2022-11-18T18:24:17.320Z,88.40
2022-11-18T18:26:44.448Z,88.00
2022-11-18T18:29:12.568Z,88.10
2022-11-18T18:31:39.626Z,88.00
2022-11-18T18:34:06.463Z,87.80
2022-11-18T18:36:33.320Z,87.90
2022-11-18T18:39:00.965Z,87.70
2022-11-18T18:41:28.103Z,87.80
2022-11-18T18:43:54.977Z,87.90
2022-11-18T18:46:30.962Z,87.90
2022-11-18T18:49:12.564Z,88.00
2022-11-18T18:51:40.129Z,88.10
2022-11-18T18:54:10.364Z,87.90
2022-11-18T18:56:38.617Z,87.90
2022-11-18T18:59:05.864Z,87.70
2022-11-18T19:01:33.641Z,87.20
2022-11-18T19:04:02.888Z,87.40
2022-11-18T19:09:25.681Z,87.60
2022-11-18T19:12:12.071Z,87.70
2022-11-18T19:14:39.426Z,87.50
2022-11-18T19:17:11.144Z,87.40
2022-11-18T19:19:59.286Z,87.30
2022-11-18T19:22:28.121Z,87.30
2022-11-18T19:24:55.188Z,87.40
2022-11-18T19:27:22.908Z,87.00
2022-11-18T19:29:49.720Z,87.10
2022-11-18T19:32:16.477Z,87.20
2022-11-18T19:34:43.578Z,87.00
2022-11-18T19:37:10.358Z,87.30
2022-11-18T19:39:38.553Z,87.40
2022-11-18T19:42:05.859Z,87.30
2022-11-18T19:44:32.605Z,87.20
2022-11-18T19:46:59.426Z,87.30
2022-11-18T19:49:26.212Z,87.10
2022-11-18T19:51:52.979Z,87.30
2022-11-18T19:54:19.799Z,87.40
2022-11-18T19:56:46.590Z,87.40
2022-11-18T19:59:13.640Z,87.50
2022-11-18T20:01:40.715Z,87.40
2022-11-18T20:04:07.600Z,87.30
2022-11-18T20:06:36.092Z,87.40
2022-11-18T20:09:06.257Z,87.40
2022-11-18T20:11:33.153Z,87.50
2022-11-18T20:14:00.008Z,87.40
2022-11-18T20:16:26.898Z,87.30
2022-11-18T20:18:59.001Z,87.40
2022-11-18T20:21:27.394Z,87.30
2022-11-18T20:23:59.916Z,87.30
2022-11-18T20:26:37.207Z,87.20
2022-11-18T20:29:05.065Z,87.20
2022-11-18T20:31:35.241Z,87.20
2022-11-18T20:34:03.013Z,87.00
2022-11-18T20:36:35.598Z,86.90
2022-11-18T20:39:05.442Z,86.90
2022-11-18T20:41:32.688Z,87.10
2022-11-18T20:44:00.242Z,87.00
2022-11-18T20:46:27.325Z,87.00
2022-11-18T20:48:54.646Z,87.00
2022-11-18T20:51:26.886Z,87.00
2022-11-18T20:53:55.647Z,87.00
2022-11-18T20:56:24.966Z,86.70
2022-11-18T20:58:51.845Z,86.80
2022-11-18T21:01:28.076Z,86.50
2022-11-18T21:04:00.167Z,86.60
2022-11-18T21:06:29.550Z,86.60
2022-11-18T21:09:06.188Z,86.60
2022-11-18T21:11:36.688Z,86.60
2022-11-18T21:14:25.275Z,86.50
2022-11-18T21:16:55.262Z,86.60
2022-11-18T21:19:22.977Z,86.70
2022-11-18T21:21:52.060Z,86.70
2022-11-18T21:24:24.061Z,86.70
2022-11-18T21:26:54.791Z,86.30
2022-11-18T21:29:22.912Z,86.20
2022-11-18T21:31:50.460Z,86.10
2022-11-18T21:34:18.129Z,86.20
2022-11-18T21:36:50.211Z,86.30
2022-11-18T21:39:20.206Z,86.00
2022-11-18T21:41:52.030Z,86.10
2022-11-18T21:44:22.308Z,85.90
2022-11-18T21:46:57.547Z,85.90
2022-11-18T21:49:24.397Z,85.80
2022-11-18T21:51:51.585Z,85.80
2022-11-18T21:54:18.685Z,85.90
2022-11-18T21:56:53.869Z,85.90
2022-11-18T21:59:22.485Z,85.70
2022-11-18T22:01:49.331Z,85.80
2022-11-18T22:04:36.103Z,85.70
2022-11-18T22:07:03.270Z,85.60
2022-11-18T22:09:34.832Z,85.80
2022-11-18T22:12:03.261Z,85.80
2022-11-18T22:14:30.001Z,85.80
2022-11-18T22:16:56.842Z,85.80
2022-11-18T22:19:23.866Z,85.80
2022-11-18T22:21:51.320Z,85.50
2022-11-18T22:24:18.097Z,85.60
2022-11-18T22:26:44.863Z,85.70
2022-11-18T22:29:11.639Z,85.70
2022-11-18T22:31:38.430Z,85.90
2022-11-18T22:34:05.223Z,86.00
2022-11-18T22:36:32.462Z,86.20
2022-11-18T22:38:59.219Z,86.30
2022-11-18T22:41:46.192Z,86.50
2022-11-18T22:44:15.070Z,86.50
2022-11-18T22:46:43.781Z,86.60
2022-11-18T22:49:11.540Z,86.60
2022-11-18T22:51:39.508Z,86.70
2022-11-18T22:56:54.797Z,86.80
2022-11-18T22:59:21.938Z,86.80
2022-11-18T23:01:51.385Z,86.80
2022-11-18T23:04:18.855Z,86.80
2022-11-18T23:06:45.767Z,86.90
2022-11-18T23:09:12.656Z,87.10
2022-11-18T23:11:57.741Z,87.10
2022-11-18T23:14:24.598Z,87.10
2022-11-18T23:16:51.418Z,87.00
2022-11-18T23:19:18.655Z,87.10
2022-11-18T23:21:46.682Z,87.20
2022-11-18T23:24:15.060Z,87.10
2022-11-18T23:26:42.790Z,87.10
2022-11-18T23:29:14.071Z,87.10
2022-11-18T23:31:43.003Z,87.20
2022-11-18T23:34:12.317Z,87.20
2022-11-18T23:36:39.241Z,87.20
2022-11-18T23:39:06.048Z,87.20
2022-11-18T23:41:32.884Z,87.30
2022-11-18T23:43:59.735Z,87.40
2022-11-18T23:46:27.732Z,87.30
2022-11-18T23:48:57.679Z,87.40
2022-11-18T23:51:25.634Z,87.50
2022-11-18T23:53:54.605Z,87.40
2022-11-18T23:56:23.635Z,87.40
2022-11-18T23:58:52.836Z,87.50
